Time,TemperatureF,DewpointF,PressureIn,WindDirection,WindDirectionDegrees,WindSpeedMPH,WindSpeedGustMPH,Humidity,HourlyPrecipIn,Conditions,Clouds,dailyrainin,SoftwareType,DateUTC
2013-03-09 00:00:00,46.9,40.1,30.21,North,0,0.0,0.0,77,0.00,,,0.00,WUHU21623XXSP,2013-03-09 06:00:00,
2013-03-09 00:05:00,46.9,40.1,30.22,North,0,0.0,0.0,77,0.00,,,0.00,WUHU21623XXSP,2013-03-09 06:05:00,
2013-03-09 00:10:00,46.9,40.1,30.22,North,0,0.0,0.0,77,0.00,,,0.00,WUHU21623XXSP,2013-03-09 06:10:00,
2013-03-09 00:15:00,46.9,40.1,30.21,North,0,0.0,0.0,77,0.00,,,0.00,WUHU21623XXSP,2013-03-09 06:15:00,
2013-03-09 00:20:00,46.9,40.4,30.21,North,0,0.0,0.0,78,0.00,,,0.00,WUHU21623XXSP,2013-03-09 06:20:00,
2013-03-09 00:25:00,46.9,40.4,30.21,North,0,0.0,0.0,78,0.00,,,0.00,WUHU21623XXSP,2013-03-09 06:25:00,
2013-03-09 00:30:00,46.9,40.4,30.21,North,0,0.0,0.0,78,0.00,,,0.00,WUHU21623XXSP,2013-03-09 06:30:00,
2013-03-09 00:35:00,47.1,40.6,30.21,North,0,0.0,0.0,78,0.00,,,0.00,WUHU21623XXSP,2013-03-09 06:35:00,
2013-03-09 00:40:00,46.9,40.4,30.20,North,0,0.0,0.0,78,0.00,,,0.00,WUHU21623XXSP,2013-03-09 06:40:00,
2013-03-09 00:45:00,46.9,40.4,30.20,North,0,0.0,0.0,78,0.00,,,0.00,WUHU21623XXSP,2013-03-09 06:45:00,
2013-03-09 00:50:00,46.9,40.4,30.20,North,0,0.0,0.0,78,0.00,,,0.00,WUHU21623XXSP,2013-03-09 06:50:00,
2013-03-09 00:55:00,46.9,40.4,30.19,North,0,0.0,0.0,78,0.00,,,0.00,WUHU21623XXSP,2013-03-09 06:55:00,
2013-03-09 01:00:00,46.9,40.4,30.19,North,0,0.0,0.0,78,0.00,,,0.00,WUHU21623XXSP,2013-03-09 07:00:00,
2013-03-09 01:05:00,46.9,40.8,30.19,North,0,0.0,0.0,79,0.00,,,0.00,WUHU21623XXSP,2013-03-09 07:05:00,
2013-03-09 01:10:00,46.9,40.8,30.19,North,0,0.0,0.0,79,0.00,,,0.00,WUHU21623XXSP,2013-03-09 07:10:00,
2013-03-09 01:15:00,46.8,40.6,30.19,North,0,0.0,0.0,79,0.00,,,0.00,WUHU21623XXSP,2013-03-09 07:15:00,
2013-03-09 01:20:00,46.8,40.6,30.19,North,0,0.0,0.0,79,0.00,,,0.00,WUHU21623XXSP,2013-03-09 07:20:00,
2013-03-09 01:25:00,46.6,40.5,30.19,North,0,0.0,0.0,79,0.00,,,0.00,WUHU21623XXSP,2013-03-09 07:25:00,
2013-03-09 01:30:00,46.6,40.5,30.19,North,0,0.0,0.0,79,0.00,,,0.00,WUHU21623XXSP,2013-03-09 07:30:00,
2013-03-09 01:35:00,46.2,40.1,30.19,North,0,0.0,0.0,79,0.00,,,0.00,WUHU21623XXSP,2013-03-09 07:35:00,
2013-03-09 01:40:00,46.2,40.1,30.19,North,0,0.0,0.0,80,0.00,,,0.00,WUHU21623XXSP,2013-03-09 07:40:00,
2013-03-09 01:45:00,46.0,40.3,30.18,North,0,0.0,0.0,80,0.00,,,0.00,WUHU21623XXSP,2013-03-09 07:45:00,
2013-03-09 01:50:00,46.0,40.3,30.19,North,0,0.0,0.0,80,0.00,,,0.00,WUHU21623XXSP,2013-03-09 07:50:00,
2013-03-09 01:55:00,45.7,40.3,30.18,North,0,0.0,0.0,79,0.00,,,0.00,WUHU21623XXSP,2013-03-09 07:55:00,
2013-03-09 02:00:00,45.7,39.9,30.18,North,0,0.0,0.0,80,0.00,,,0.00,WUHU21623XXSP,2013-03-09 08:00:00,
2013-03-09 02:05:00,45.7,39.9,30.18,North,0,0.0,0.0,80,0.00,,,0.00,WUHU21623XXSP,2013-03-09 08:05:00,
2013-03-09 02:20:00,45.7,39.9,30.18,North,0,0.0,0.0,80,0.00,,,0.00,WUHU21623XXSP,2013-03-09 08:20:00,
2013-03-09 02:25:00,44.8,39.5,30.17,North,0,0.0,0.0,80,0.00,,,0.00,WUHU21623XXSP,2013-03-09 08:25:00,
2013-03-09 02:30:00,44.8,39.3,30.17,North,0,0.0,0.0,81,0.00,,,0.00,WUHU21623XXSP,2013-03-09 08:30:00,
2013-03-09 02:35:00,44.4,38.7,30.17,North,0,0.0,0.0,80,0.00,,,0.00,WUHU21623XXSP,2013-03-09 08:35:00,
2013-03-09 02:40:00,44.4,39.0,30.17,North,0,0.0,0.0,81,0.00,,,0.00,WUHU21623XXSP,2013-03-09 08:40:00,
2013-03-09 02:45:00,44.2,38.8,30.16,North,0,0.0,0.0,81,0.00,,,0.00,WUHU21623XXSP,2013-03-09 08:45:00,
2013-03-09 02:50:00,44.1,38.6,30.16,North,0,0.0,0.0,81,0.00,,,0.00,WUHU21623XXSP,2013-03-09 08:50:00,
2013-03-09 02:55:00,43.9,38.4,30.16,North,0,0.0,0.0,81,0.00,,,0.00,WUHU21623XXSP,2013-03-09 08:55:00,
2013-03-09 03:00:00,43.9,38.4,30.16,North,0,0.0,0.0,81,0.00,,,0.00,WUHU21623XXSP,2013-03-09 09:00:00,
2013-03-09 03:05:00,43.9,38.4,30.16,North,0,0.0,0.0,81,0.00,,,0.00,WUHU21623XXSP,2013-03-09 09:05:00,
2013-03-09 03:11:00,43.9,38.4,30.16,North,0,0.0,0.0,81,0.00,,,0.00,WUHU21623XXSP,2013-03-09 09:11:00,
2013-03-09 03:16:00,43.5,38.4,30.16,North,0,0.0,0.0,82,0.00,,,0.00,WUHU21623XXSP,2013-03-09 09:16:00,
2013-03-09 03:21:00,43.5,38.1,30.15,North,0,0.0,0.0,81,0.00,,,0.00,WUHU21623XXSP,2013-03-09 09:21:00,
2013-03-09 03:26:00,43.3,38.2,30.15,North,0,0.0,0.0,82,0.00,,,0.00,WUHU21623XXSP,2013-03-09 09:26:00,
2013-03-09 03:31:00,43.2,38.3,30.14,North,0,0.0,0.0,83,0.00,,,0.00,WUHU21623XXSP,2013-03-09 09:31:00,
2013-03-09 03:36:00,43.5,39.3,30.14,North,0,0.0,0.0,85,0.00,,,0.00,WUHU21623XXSP,2013-03-09 09:36:00,
2013-03-09 03:41:00,43.9,40.1,30.14,North,0,0.0,0.0,87,0.00,,,0.00,WUHU21623XXSP,2013-03-09 09:41:00,
2013-03-09 03:46:00,44.2,40.6,30.14,North,0,0.0,0.0,87,0.00,,,0.00,WUHU21623XXSP,2013-03-09 09:46:00,
2013-03-09 03:51:00,44.4,40.8,30.14,North,0,0.0,0.0,87,0.00,,,0.00,WUHU21623XXSP,2013-03-09 09:51:00,
2013-03-09 03:56:00,44.4,40.8,30.14,North,0,0.0,0.0,87,0.00,,,0.00,WUHU21623XXSP,2013-03-09 09:56:00,
2013-03-09 04:01:00,44.6,41.0,30.13,North,0,0.0,0.0,87,0.00,,,0.00,WUHU21623XXSP,2013-03-09 10:01:00,
2013-03-09 04:06:00,44.8,41.5,30.13,North,0,0.0,0.0,88,0.00,,,0.00,WUHU21623XXSP,2013-03-09 10:06:00,
2013-03-09 04:11:00,45.0,41.6,30.14,North,0,0.0,0.0,88,0.00,,,0.00,WUHU21623XXSP,2013-03-09 10:11:00,
2013-03-09 04:16:00,45.1,41.5,30.14,North,0,0.0,0.0,87,0.00,,,0.00,WUHU21623XXSP,2013-03-09 10:16:00,
2013-03-09 04:21:00,45.1,41.5,30.14,North,0,0.0,0.0,87,0.00,,,0.00,WUHU21623XXSP,2013-03-09 10:21:00,
2013-03-09 04:26:00,45.1,41.2,30.15,North,0,0.0,0.0,86,0.00,,,0.00,WUHU21623XXSP,2013-03-09 10:26:00,
2013-03-09 04:31:00,45.1,41.2,30.15,North,0,0.0,0.0,86,0.00,,,0.00,WUHU21623XXSP,2013-03-09 10:31:00,
2013-03-09 04:36:00,45.1,41.2,30.14,North,0,0.0,0.0,86,0.00,,,0.00,WUHU21623XXSP,2013-03-09 10:36:00,
2013-03-09 04:41:00,45.3,41.1,30.15,North,0,0.0,0.0,85,0.00,,,0.00,WUHU21623XXSP,2013-03-09 10:41:00,
2013-03-09 04:46:00,45.3,41.1,30.15,North,0,0.0,0.0,85,0.00,,,0.00,WUHU21623XXSP,2013-03-09 10:46:00,
2013-03-09 04:51:00,45.1,41.1,30.15,North,0,0.0,0.0,85,0.00,,,0.00,WUHU21623XXSP,2013-03-09 10:51:00,
2013-03-09 04:56:00,45.1,40.9,30.15,North,0,0.0,0.0,85,0.00,,,0.00,WUHU21623XXSP,2013-03-09 10:56:00,
2013-03-09 05:01:00,45.1,40.9,30.15,North,0,0.0,0.0,85,0.00,,,0.00,WUHU21623XXSP,2013-03-09 11:01:00,
2013-03-09 05:06:00,45.0,40.9,30.15,North,0,0.0,0.0,85,0.00,,,0.00,WUHU21623XXSP,2013-03-09 11:06:00,
2013-03-09 05:11:00,44.8,40.5,30.16,North,0,0.0,0.0,85,0.00,,,0.00,WUHU21623XXSP,2013-03-09 11:11:00,
2013-03-09 05:16:00,44.6,40.4,30.16,North,0,0.0,0.0,85,0.00,,,0.00,WUHU21623XXSP,2013-03-09 11:16:00,
2013-03-09 05:21:00,44.4,40.2,30.16,North,0,0.0,0.0,85,0.00,,,0.00,WUHU21623XXSP,2013-03-09 11:21:00,
2013-03-09 05:26:00,44.4,40.2,30.16,North,0,0.0,0.0,85,0.00,,,0.00,WUHU21623XXSP,2013-03-09 11:26:00,
2013-03-09 05:31:00,44.2,40.0,30.16,North,0,0.0,0.0,85,0.00,,,0.00,WUHU21623XXSP,2013-03-09 11:31:00,
2013-03-09 05:36:00,43.9,39.6,30.16,North,0,0.0,0.0,85,0.00,,,0.00,WUHU21623XXSP,2013-03-09 11:36:00,
2013-03-09 05:41:00,43.9,39.6,30.16,North,0,0.0,0.0,85,0.00,,,0.00,WUHU21623XXSP,2013-03-09 11:41:00,
2013-03-09 05:46:00,43.5,39.3,30.16,North,0,0.0,0.0,85,0.00,,,0.00,WUHU21623XXSP,2013-03-09 11:46:00,
2013-03-09 05:51:00,43.5,39.3,30.16,North,0,0.0,0.0,85,0.00,,,0.00,WUHU21623XXSP,2013-03-09 11:51:00,
2013-03-09 05:56:00,43.3,39.1,30.17,North,0,0.0,0.0,85,0.00,,,0.00,WUHU21623XXSP,2013-03-09 11:56:00,
2013-03-09 06:01:00,43.2,38.9,30.16,North,0,0.0,0.0,85,0.00,,,0.00,WUHU21623XXSP,2013-03-09 12:01:00,
2013-03-09 06:06:00,43.0,38.8,30.17,North,0,0.0,0.0,85,0.00,,,0.00,WUHU21623XXSP,2013-03-09 12:06:00,
2013-03-09 06:11:00,43.0,38.8,30.17,North,0,0.0,0.0,85,0.00,,,0.00,WUHU21623XXSP,2013-03-09 12:11:00,
2013-03-09 06:16:00,42.6,38.6,30.17,North,0,0.0,0.0,85,0.00,,,0.00,WUHU21623XXSP,2013-03-09 12:16:00,
2013-03-09 06:21:00,42.6,38.4,30.17,North,0,0.0,0.0,85,0.00,,,0.00,WUHU21623XXSP,2013-03-09 12:21:00,
2013-03-09 06:26:00,42.6,38.4,30.17,North,0,0.0,0.0,85,0.00,,,0.00,WUHU21623XXSP,2013-03-09 12:26:00,
2013-03-09 06:31:00,42.6,38.4,30.18,North,0,0.0,0.0,85,0.00,,,0.00,WUHU21623XXSP,2013-03-09 12:31:00,
2013-03-09 06:36:00,42.4,38.2,30.18,North,0,0.0,0.0,85,0.00,,,0.00,WUHU21623XXSP,2013-03-09 12:36:00,
2013-03-09 06:41:00,42.4,38.2,30.18,North,0,0.0,0.0,85,0.00,,,0.00,WUHU21623XXSP,2013-03-09 12:41:00,
2013-03-09 06:46:00,42.6,38.2,30.18,North,0,0.0,0.0,85,0.00,,,0.00,WUHU21623XXSP,2013-03-09 12:46:00,
2013-03-09 06:51:00,42.6,38.4,30.18,North,0,0.0,0.0,85,0.00,,,0.00,WUHU21623XXSP,2013-03-09 12:51:00,
2013-03-09 06:56:00,42.6,38.7,30.19,North,0,0.0,0.0,86,0.00,,,0.00,WUHU21623XXSP,2013-03-09 12:56:00,
2013-03-09 07:01:00,43.0,39.1,30.18,North,0,0.0,0.0,86,0.00,,,0.00,WUHU21623XXSP,2013-03-09 13:01:00,
2013-03-09 07:06:00,43.2,39.2,30.19,North,0,0.0,0.0,86,0.00,,,0.00,WUHU21623XXSP,2013-03-09 13:06:00,
2013-03-09 07:11:00,43.3,39.7,30.18,North,0,0.0,0.0,87,0.00,,,0.00,WUHU21623XXSP,2013-03-09 13:11:00,
2013-03-09 07:16:00,43.5,39.9,30.19,North,0,0.0,0.0,87,0.00,,,0.00,WUHU21623XXSP,2013-03-09 13:16:00,
2013-03-09 07:21:00,44.1,40.4,30.19,North,0,0.0,0.0,87,0.00,,,0.00,WUHU21623XXSP,2013-03-09 13:21:00,
2013-03-09 07:26:00,44.4,41.1,30.19,North,0,0.0,0.0,88,0.00,,,0.00,WUHU21623XXSP,2013-03-09 13:26:00,
2013-03-09 07:31:00,44.8,41.5,30.20,North,0,0.0,0.0,88,0.00,,,0.00,WUHU21623XXSP,2013-03-09 13:31:00,
2013-03-09 07:36:00,45.5,42.2,30.20,North,0,0.0,0.0,88,0.00,,,0.00,WUHU21623XXSP,2013-03-09 13:36:00,
2013-03-09 07:41:00,46.0,43.0,30.20,North,0,0.0,0.0,89,0.00,,,0.00,WUHU21623XXSP,2013-03-09 13:41:00,
2013-03-09 07:46:00,46.6,43.6,30.20,North,0,0.0,0.0,89,0.00,,,0.00,WUHU21623XXSP,2013-03-09 13:46:00,
2013-03-09 07:51:00,47.5,44.8,30.20,North,0,0.0,0.0,90,0.00,,,0.00,WUHU21623XXSP,2013-03-09 13:51:00,
2013-03-09 07:56:00,48.2,45.1,30.20,North,0,0.0,0.0,89,0.00,,,0.00,WUHU21623XXSP,2013-03-09 13:56:00,
2013-03-09 08:01:00,48.6,45.5,30.20,North,0,0.0,0.0,89,0.00,,,0.00,WUHU21623XXSP,2013-03-09 14:01:00,
2013-03-09 08:06:00,49.3,45.8,30.20,North,0,0.0,0.0,88,0.00,,,0.00,WUHU21623XXSP,2013-03-09 14:06:00,
2013-03-09 08:11:00,49.8,46.3,30.20,North,0,0.0,0.0,88,0.00,,,0.00,WUHU21623XXSP,2013-03-09 14:11:00,
2013-03-09 08:16:00,50.2,46.7,30.20,North,0,0.0,0.0,87,0.00,,,0.00,WUHU21623XXSP,2013-03-09 14:16:00,
2013-03-09 08:21:00,50.7,46.6,30.20,North,0,0.0,0.0,86,0.00,,,0.00,WUHU21623XXSP,2013-03-09 14:21:00,
2013-03-09 08:26:00,51.3,47.2,30.21,North,0,0.0,0.0,86,0.00,,,0.00,WUHU21623XXSP,2013-03-09 14:26:00,
2013-03-09 08:31:00,51.4,47.0,30.20,North,0,0.0,0.0,84,0.00,,,0.00,WUHU21623XXSP,2013-03-09 14:31:00,
2013-03-09 08:36:00,52.3,47.3,30.20,North,0,0.0,0.0,83,0.00,,,0.00,WUHU21623XXSP,2013-03-09 14:36:00,
2013-03-09 08:41:00,53.4,47.8,30.21,North,0,0.0,0.0,81,0.00,,,0.00,WUHU21623XXSP,2013-03-09 14:41:00,
2013-03-09 08:46:00,54.1,48.5,30.21,North,0,0.0,0.0,81,0.00,,,0.00,WUHU21623XXSP,2013-03-09 14:46:00,
2013-03-09 08:51:00,54.9,48.5,30.21,North,0,0.0,0.0,79,0.00,,,0.00,WUHU21623XXSP,2013-03-09 14:51:00,
2013-03-09 08:56:00,55.6,48.4,30.21,North,0,0.0,0.0,77,0.00,,,0.00,WUHU21623XXSP,2013-03-09 14:56:00,
2013-03-09 09:01:00,56.3,47.7,30.21,North,0,0.0,0.0,74,0.00,,,0.00,WUHU21623XXSP,2013-03-09 15:01:00,
2013-03-09 09:06:00,57.0,48.7,30.21,North,0,0.0,0.0,74,0.00,,,0.00,WUHU21623XXSP,2013-03-09 15:06:00,
2013-03-09 09:11:00,58.3,49.3,30.21,North,0,0.0,0.0,72,0.00,,,0.00,WUHU21623XXSP,2013-03-09 15:11:00,
2013-03-09 09:16:00,58.8,49.5,30.21,North,0,0.0,0.0,71,0.00,,,0.00,WUHU21623XXSP,2013-03-09 15:16:00,
2013-03-09 09:21:00,59.7,50.0,30.20,North,0,0.0,0.0,70,0.00,,,0.00,WUHU21623XXSP,2013-03-09 15:21:00,
2013-03-09 09:26:00,60.6,50.1,30.21,North,0,0.0,0.0,68,0.00,,,0.00,WUHU21623XXSP,2013-03-09 15:26:00,
2013-03-09 09:31:00,61.2,50.6,30.21,North,0,0.0,0.0,68,0.00,,,0.00,WUHU21623XXSP,2013-03-09 15:31:00,
2013-03-09 09:36:00,61.5,50.5,30.21,North,0,0.0,0.0,67,0.00,,,0.00,WUHU21623XXSP,2013-03-09 15:36:00,
2013-03-09 09:41:00,62.4,50.1,30.21,North,0,0.0,0.0,64,0.00,,,0.00,WUHU21623XXSP,2013-03-09 15:41:00,
2013-03-09 09:46:00,62.8,50.1,30.21,North,0,0.0,0.0,63,0.00,,,0.00,WUHU21623XXSP,2013-03-09 15:46:00,
2013-03-09 09:51:00,63.3,50.9,30.20,North,0,0.0,0.0,64,0.00,,,0.00,WUHU21623XXSP,2013-03-09 15:51:00,
2013-03-09 09:56:00,63.7,51.2,30.20,North,0,0.0,0.0,64,0.00,,,0.00,WUHU21623XXSP,2013-03-09 15:56:00,
2013-03-09 10:01:00,64.0,51.6,30.20,North,0,0.0,0.0,64,0.00,,,0.00,WUHU21623XXSP,2013-03-09 16:01:00,
2013-03-09 10:06:00,64.2,51.3,30.21,North,0,0.0,0.0,63,0.00,,,0.00,WUHU21623XXSP,2013-03-09 16:06:00,
2013-03-09 10:11:00,64.8,51.4,30.21,North,0,0.0,0.0,62,0.00,,,0.00,WUHU21623XXSP,2013-03-09 16:11:00,
2013-03-09 10:16:00,64.9,51.6,30.21,North,0,0.0,0.0,62,0.00,,,0.00,WUHU21623XXSP,2013-03-09 16:16:00,
2013-03-09 10:21:00,65.1,50.9,30.21,North,0,0.0,0.0,60,0.00,,,0.00,WUHU21623XXSP,2013-03-09 16:21:00,
2013-03-09 10:26:00,65.5,51.3,30.21,North,0,0.0,0.0,60,0.00,,,0.00,WUHU21623XXSP,2013-03-09 16:26:00,
2013-03-09 10:31:00,65.8,51.6,30.21,North,0,0.0,0.0,60,0.00,,,0.00,WUHU21623XXSP,2013-03-09 16:31:00,
2013-03-09 10:36:00,66.4,52.6,30.21,North,0,0.0,0.0,61,0.00,,,0.00,WUHU21623XXSP,2013-03-09 16:36:00,
2013-03-09 10:41:00,66.7,52.9,30.21,North,0,0.0,0.0,60,0.00,,,0.00,WUHU21623XXSP,2013-03-09 16:41:00,
2013-03-09 10:46:00,67.3,52.5,30.21,North,0,0.0,0.0,59,0.00,,,0.00,WUHU21623XXSP,2013-03-09 16:46:00,
2013-03-09 10:51:00,67.6,52.8,30.21,North,0,0.0,0.0,59,0.00,,,0.00,WUHU21623XXSP,2013-03-09 16:51:00,
2013-03-09 10:56:00,68.2,52.3,30.21,North,0,0.0,0.0,57,0.00,,,0.00,WUHU21623XXSP,2013-03-09 16:56:00,
2013-03-09 11:01:00,68.5,51.7,30.21,North,0,0.0,0.0,55,0.00,,,0.00,WUHU21623XXSP,2013-03-09 17:01:00,
2013-03-09 11:06:00,68.9,51.9,30.21,North,0,0.0,0.0,54,0.00,,,0.00,WUHU21623XXSP,2013-03-09 17:06:00,
2013-03-09 11:11:00,69.1,52.2,30.21,North,0,0.0,0.0,55,0.00,,,0.00,WUHU21623XXSP,2013-03-09 17:11:00,
2013-03-09 11:16:00,69.4,51.9,30.21,North,0,0.0,0.0,55,0.00,,,0.00,WUHU21623XXSP,2013-03-09 17:16:00,
2013-03-09 11:21:00,69.6,52.7,30.21,North,0,0.0,0.0,55,0.00,,,0.00,WUHU21623XXSP,2013-03-09 17:21:00,
2013-03-09 11:26:00,70.3,52.4,30.21,North,0,0.0,0.0,53,0.00,,,0.00,WUHU21623XXSP,2013-03-09 17:26:00,
2013-03-09 11:31:00,70.3,51.4,30.20,North,0,0.0,0.0,51,0.00,,,0.00,WUHU21623XXSP,2013-03-09 17:31:00,
2013-03-09 11:36:00,70.3,52.4,30.20,North,0,0.0,0.0,53,0.00,,,0.00,WUHU21623XXSP,2013-03-09 17:36:00,
2013-03-09 11:41:00,70.3,52.9,30.20,North,0,0.0,0.0,54,0.00,,,0.00,WUHU21623XXSP,2013-03-09 17:41:00,
2013-03-09 11:46:00,70.3,52.4,30.20,North,0,0.0,0.0,53,0.00,,,0.00,WUHU21623XXSP,2013-03-09 17:46:00,
2013-03-09 11:51:00,70.3,52.9,30.20,North,0,0.0,0.0,54,0.00,,,0.00,WUHU21623XXSP,2013-03-09 17:51:00,
2013-03-09 11:56:00,70.5,53.5,30.20,North,0,0.0,0.0,55,0.00,,,0.00,WUHU21623XXSP,2013-03-09 17:56:00,
2013-03-09 12:01:00,70.9,53.3,30.19,North,0,0.0,0.0,54,0.00,,,0.00,WUHU21623XXSP,2013-03-09 18:01:00,
2013-03-09 12:06:00,70.9,52.3,30.20,North,0,0.0,0.0,52,0.00,,,0.00,WUHU21623XXSP,2013-03-09 18:06:00,
2013-03-09 12:11:00,71.2,53.2,30.20,North,0,0.0,0.0,53,0.00,,,0.00,WUHU21623XXSP,2013-03-09 18:11:00,
2013-03-09 12:16:00,71.2,53.2,30.20,North,0,0.0,0.0,53,0.00,,,0.00,WUHU21623XXSP,2013-03-09 18:16:00,
2013-03-09 12:21:00,71.6,53.0,30.19,North,0,0.0,0.0,52,0.00,,,0.00,WUHU21623XXSP,2013-03-09 18:21:00,
2013-03-09 12:26:00,71.8,52.6,30.19,North,0,0.0,0.0,51,0.00,,,0.00,WUHU21623XXSP,2013-03-09 18:26:00,
2013-03-09 12:31:00,72.1,53.0,30.19,North,0,0.0,0.0,51,0.00,,,0.00,WUHU21623XXSP,2013-03-09 18:31:00,
2013-03-09 12:36:00,72.3,52.0,30.19,North,0,0.0,0.0,49,0.00,,,0.00,WUHU21623XXSP,2013-03-09 18:36:00,
2013-03-09 12:41:00,72.9,50.7,30.18,North,0,0.0,0.0,46,0.00,,,0.00,WUHU21623XXSP,2013-03-09 18:41:00,
2013-03-09 12:46:00,73.0,50.9,30.18,North,0,0.0,0.0,46,0.00,,,0.00,WUHU21623XXSP,2013-03-09 18:46:00,
2013-03-09 12:51:00,73.2,51.1,30.19,North,0,0.0,0.0,46,0.00,,,0.00,WUHU21623XXSP,2013-03-09 18:51:00,
2013-03-09 12:56:00,73.6,51.4,30.19,North,0,0.0,0.0,46,0.00,,,0.00,WUHU21623XXSP,2013-03-09 18:56:00,
2013-03-09 13:01:00,73.6,51.4,30.18,North,0,0.0,0.0,46,0.00,,,0.00,WUHU21623XXSP,2013-03-09 19:01:00,
2013-03-09 13:06:00,73.8,51.6,30.18,North,0,0.0,0.0,46,0.00,,,0.00,WUHU21623XXSP,2013-03-09 19:06:00,
2013-03-09 13:11:00,73.6,50.8,30.18,North,0,0.0,0.0,45,0.00,,,0.00,WUHU21623XXSP,2013-03-09 19:11:00,
2013-03-09 13:16:00,73.2,50.5,30.18,North,0,0.0,0.0,45,0.00,,,0.00,WUHU21623XXSP,2013-03-09 19:16:00,
2013-03-09 13:21:00,72.7,51.2,30.18,North,0,0.0,0.0,47,0.00,,,0.00,WUHU21623XXSP,2013-03-09 19:21:00,
2013-03-09 13:26:00,72.7,51.8,30.18,North,0,0.0,0.0,48,0.00,,,0.00,WUHU21623XXSP,2013-03-09 19:26:00,
2013-03-09 13:31:00,72.3,52.0,30.17,North,0,0.0,0.0,49,0.00,,,0.00,WUHU21623XXSP,2013-03-09 19:31:00,
2013-03-09 13:36:00,71.8,52.1,30.17,North,0,0.0,0.0,50,0.00,,,0.00,WUHU21623XXSP,2013-03-09 19:36:00,
2013-03-09 13:41:00,71.4,52.3,30.17,North,0,0.0,0.0,51,0.00,,,0.00,WUHU21623XXSP,2013-03-09 19:41:00,
2013-03-09 13:46:00,71.2,52.7,30.17,North,0,0.0,0.0,52,0.00,,,0.00,WUHU21623XXSP,2013-03-09 19:46:00,
2013-03-09 13:51:00,70.9,53.3,30.17,North,0,0.0,0.0,54,0.00,,,0.00,WUHU21623XXSP,2013-03-09 19:51:00,
2013-03-09 13:56:00,70.3,53.4,30.16,North,0,0.0,0.0,55,0.00,,,0.00,WUHU21623XXSP,2013-03-09 19:56:00,
2013-03-09 14:01:00,70.0,53.5,30.17,North,0,0.0,0.0,56,0.00,,,0.00,WUHU21623XXSP,2013-03-09 20:01:00,
2013-03-09 14:06:00,69.6,53.7,30.16,North,0,0.0,0.0,57,0.00,,,0.00,WUHU21623XXSP,2013-03-09 20:06:00,
2013-03-09 14:11:00,69.4,54.0,30.16,North,0,0.0,0.0,58,0.00,,,0.00,WUHU21623XXSP,2013-03-09 20:11:00,
2013-03-09 14:16:00,69.3,54.4,30.16,North,0,0.0,0.0,59,0.00,,,0.00,WUHU21623XXSP,2013-03-09 20:16:00,
2013-03-09 14:21:00,68.9,54.9,30.16,North,0,0.0,0.0,61,0.00,,,0.00,WUHU21623XXSP,2013-03-09 20:21:00,
2013-03-09 14:26:00,68.7,54.7,30.16,North,0,0.0,0.0,61,0.00,,,0.00,WUHU21623XXSP,2013-03-09 20:26:00,
2013-03-09 14:31:00,68.5,55.0,30.16,North,0,0.0,0.0,62,0.00,,,0.00,WUHU21623XXSP,2013-03-09 20:31:00,
2013-03-09 14:36:00,68.2,55.1,30.15,North,0,0.0,0.0,63,0.00,,,0.00,WUHU21623XXSP,2013-03-09 20:36:00,
2013-03-09 14:41:00,68.0,54.9,30.15,North,0,0.0,0.0,63,0.00,,,0.00,WUHU21623XXSP,2013-03-09 20:41:00,
2013-03-09 14:46:00,67.8,55.1,30.15,North,0,0.0,0.0,64,0.00,,,0.00,WUHU21623XXSP,2013-03-09 20:46:00,
2013-03-09 14:51:00,67.6,55.4,30.14,North,0,0.0,0.0,65,0.00,,,0.00,WUHU21623XXSP,2013-03-09 20:51:00,
2013-03-09 14:56:00,67.5,55.2,30.15,North,0,0.0,0.0,65,0.00,,,0.00,WUHU21623XXSP,2013-03-09 20:56:00,
2013-03-09 15:01:00,67.3,55.5,30.15,North,0,0.0,0.0,66,0.00,,,0.00,WUHU21623XXSP,2013-03-09 21:01:00,
2013-03-09 15:06:00,66.9,55.6,30.15,North,0,0.0,0.0,67,0.00,,,0.00,WUHU21623XXSP,2013-03-09 21:06:00,
2013-03-09 15:11:00,66.9,56.0,30.14,North,0,0.0,0.0,68,0.00,,,0.00,WUHU21623XXSP,2013-03-09 21:11:00,
2013-03-09 15:16:00,66.7,55.8,30.14,North,0,0.0,0.0,68,0.00,,,0.00,WUHU21623XXSP,2013-03-09 21:16:00,
2013-03-09 15:21:00,66.6,56.0,30.14,North,0,0.0,0.0,69,0.00,,,0.00,WUHU21623XXSP,2013-03-09 21:21:00,
2013-03-09 15:26:00,66.4,55.9,30.14,North,0,0.0,0.0,69,0.00,,,0.00,WUHU21623XXSP,2013-03-09 21:26:00,
2013-03-09 15:31:00,66.4,56.3,30.13,North,0,0.0,0.0,70,0.00,,,0.00,WUHU21623XXSP,2013-03-09 21:31:00,
2013-03-09 15:36:00,66.4,56.3,30.13,North,0,0.0,0.0,70,0.00,,,0.00,WUHU21623XXSP,2013-03-09 21:36:00,
2013-03-09 15:41:00,66.4,56.3,30.13,North,0,0.0,0.0,70,0.00,,,0.00,WUHU21623XXSP,2013-03-09 21:41:00,
2013-03-09 15:46:00,66.2,56.5,30.14,North,0,0.0,0.0,71,0.00,,,0.00,WUHU21623XXSP,2013-03-09 21:46:00,
2013-03-09 15:51:00,66.2,56.5,30.14,North,0,0.0,0.0,71,0.00,,,0.00,WUHU21623XXSP,2013-03-09 21:51:00,
2013-03-09 15:56:00,66.0,56.7,30.14,North,0,0.0,0.0,72,0.00,,,0.00,WUHU21623XXSP,2013-03-09 21:56:00,
2013-03-09 16:01:00,66.0,56.7,30.14,North,0,0.0,0.0,72,0.00,,,0.00,WUHU21623XXSP,2013-03-09 22:01:00,
2013-03-09 16:06:00,65.8,56.9,30.14,North,0,0.0,0.0,73,0.00,,,0.00,WUHU21623XXSP,2013-03-09 22:06:00,
2013-03-09 16:11:00,65.5,56.8,30.14,North,0,0.0,0.0,73,0.00,,,0.00,WUHU21623XXSP,2013-03-09 22:11:00,
2013-03-09 16:16:00,65.5,56.9,30.14,North,0,0.0,0.0,74,0.00,,,0.00,WUHU21623XXSP,2013-03-09 22:16:00,
2013-03-09 16:21:00,65.1,56.6,30.14,North,0,0.0,0.0,74,0.00,,,0.00,WUHU21623XXSP,2013-03-09 22:21:00,
2013-03-09 16:26:00,64.9,56.4,30.14,North,0,0.0,0.0,74,0.00,,,0.00,WUHU21623XXSP,2013-03-09 22:26:00,
2013-03-09 16:31:00,64.9,56.4,30.14,North,0,0.0,0.0,74,0.00,,,0.00,WUHU21623XXSP,2013-03-09 22:31:00,
2013-03-09 16:36:00,64.8,56.6,30.13,North,0,0.0,0.0,75,0.00,,,0.00,WUHU21623XXSP,2013-03-09 22:36:00,
2013-03-09 16:41:00,64.6,56.5,30.14,North,0,0.0,0.0,75,0.00,,,0.00,WUHU21623XXSP,2013-03-09 22:41:00,
2013-03-09 16:46:00,64.6,56.8,30.14,North,0,0.0,0.0,76,0.00,,,0.00,WUHU21623XXSP,2013-03-09 22:46:00,
2013-03-09 16:51:00,64.2,56.5,30.13,North,0,0.0,0.0,76,0.00,,,0.00,WUHU21623XXSP,2013-03-09 22:51:00,
2013-03-09 16:56:00,64.0,56.7,30.13,North,0,0.0,0.0,77,0.00,,,0.00,WUHU21623XXSP,2013-03-09 22:56:00,
2013-03-09 17:01:00,64.0,56.7,30.13,North,0,0.0,0.0,78,0.00,,,0.00,WUHU21623XXSP,2013-03-09 23:01:00,
2013-03-09 17:06:00,63.7,56.7,30.13,North,0,0.0,0.0,78,0.00,,,0.00,WUHU21623XXSP,2013-03-09 23:06:00,
2013-03-09 17:11:00,63.7,56.7,30.12,North,0,0.0,0.0,78,0.00,,,0.00,WUHU21623XXSP,2013-03-09 23:11:00,
2013-03-09 17:16:00,63.5,56.5,30.12,North,0,0.0,0.0,78,0.00,,,0.00,WUHU21623XXSP,2013-03-09 23:16:00,
2013-03-09 17:21:00,63.3,56.3,30.13,North,0,0.0,0.0,78,0.00,,,0.00,WUHU21623XXSP,2013-03-09 23:21:00,
2013-03-09 17:26:00,63.3,56.7,30.13,North,0,0.0,0.0,79,0.00,,,0.00,WUHU21623XXSP,2013-03-09 23:26:00,
2013-03-09 17:31:00,63.3,57.0,30.12,North,0,0.0,0.0,80,0.00,,,0.00,WUHU21623XXSP,2013-03-09 23:31:00,
2013-03-09 17:36:00,63.1,56.8,30.12,North,0,0.0,0.0,80,0.00,,,0.00,WUHU21623XXSP,2013-03-09 23:36:00,
2013-03-09 17:41:00,63.1,56.8,30.12,North,0,0.0,0.0,80,0.00,,,0.00,WUHU21623XXSP,2013-03-09 23:41:00,
2013-03-09 17:46:00,63.1,56.8,30.12,North,0,0.0,0.0,80,0.00,,,0.00,WUHU21623XXSP,2013-03-09 23:46:00,
2013-03-09 17:51:00,62.8,56.5,30.11,North,0,0.0,0.0,80,0.00,,,0.00,WUHU21623XXSP,2013-03-09 23:51:00,
2013-03-09 17:56:00,62.6,56.3,30.11,North,0,0.0,0.0,80,0.00,,,0.00,WUHU21623XXSP,2013-03-09 23:56:00,
2013-03-09 18:01:00,62.4,56.5,30.11,North,0,0.0,0.0,81,0.00,,,0.00,WUHU21623XXSP,2013-03-10 00:01:00,
2013-03-09 18:06:00,62.2,56.3,30.11,North,0,0.0,0.0,81,0.00,,,0.00,WUHU21623XXSP,2013-03-10 00:06:00,
2013-03-09 18:11:00,61.9,56.0,30.11,North,0,0.0,0.0,81,0.00,,,0.00,WUHU21623XXSP,2013-03-10 00:11:00,
2013-03-09 18:16:00,61.7,55.8,30.12,North,0,0.0,0.0,81,0.00,,,0.00,WUHU21623XXSP,2013-03-10 00:16:00,
2013-03-09 18:21:00,61.5,55.7,30.11,North,0,0.0,0.0,81,0.00,,,0.00,WUHU21623XXSP,2013-03-10 00:21:00,
2013-03-09 18:26:00,61.5,56.0,30.12,North,0,0.0,0.0,82,0.00,,,0.00,WUHU21623XXSP,2013-03-10 00:26:00,
2013-03-09 18:31:00,61.3,55.8,30.12,North,0,0.0,0.0,82,0.00,,,0.00,WUHU21623XXSP,2013-03-10 00:31:00,
2013-03-09 18:36:00,61.0,55.7,30.11,North,0,0.0,0.0,82,0.00,,,0.00,WUHU21623XXSP,2013-03-10 00:36:00,
2013-03-09 18:41:00,61.0,55.8,30.11,North,0,0.0,0.0,83,0.00,,,0.00,WUHU21623XXSP,2013-03-10 00:41:00,
2013-03-09 18:46:00,60.6,55.5,30.10,North,0,0.0,0.0,83,0.00,,,0.00,WUHU21623XXSP,2013-03-10 00:46:00,
2013-03-09 18:51:00,60.4,55.3,30.10,North,0,0.0,0.0,83,0.00,,,0.00,WUHU21623XXSP,2013-03-10 00:51:00,
2013-03-09 18:56:00,60.3,55.1,30.11,North,0,0.0,0.0,83,0.00,,,0.00,WUHU21623XXSP,2013-03-10 00:56:00,
2013-03-09 19:01:00,60.1,54.9,30.10,North,0,0.0,0.0,83,0.00,,,0.00,WUHU21623XXSP,2013-03-10 01:01:00,
2013-03-09 19:06:00,60.1,55.3,30.11,North,0,0.0,0.0,84,0.00,,,0.00,WUHU21623XXSP,2013-03-10 01:06:00,
2013-03-09 19:11:00,59.9,55.1,30.10,North,0,0.0,0.0,84,0.00,,,0.00,WUHU21623XXSP,2013-03-10 01:11:00,
2013-03-09 19:16:00,59.7,54.9,30.11,North,0,0.0,0.0,84,0.00,,,0.00,WUHU21623XXSP,2013-03-10 01:16:00,
2013-03-09 19:21:00,59.7,54.9,30.11,North,0,0.0,0.0,84,0.00,,,0.00,WUHU21623XXSP,2013-03-10 01:21:00,
2013-03-09 19:26:00,59.5,54.7,30.11,North,0,0.0,0.0,84,0.00,,,0.00,WUHU21623XXSP,2013-03-10 01:26:00,
2013-03-09 19:31:00,59.5,54.7,30.10,North,0,0.0,0.0,84,0.00,,,0.00,WUHU21623XXSP,2013-03-10 01:31:00,
2013-03-09 19:36:00,59.2,54.4,30.10,North,0,0.0,0.0,84,0.00,,,0.00,WUHU21623XXSP,2013-03-10 01:36:00,
2013-03-09 19:41:00,59.2,54.4,30.10,North,0,0.0,0.0,85,0.00,,,0.00,WUHU21623XXSP,2013-03-10 01:41:00,
2013-03-09 19:46:00,59.0,54.5,30.10,North,0,0.0,0.0,85,0.00,,,0.00,WUHU21623XXSP,2013-03-10 01:46:00,
2013-03-09 19:51:00,58.8,54.3,30.10,North,0,0.0,0.0,85,0.00,,,0.00,WUHU21623XXSP,2013-03-10 01:51:00,
2013-03-09 19:56:00,58.8,54.3,30.10,North,0,0.0,0.0,85,0.00,,,0.00,WUHU21623XXSP,2013-03-10 01:56:00,
2013-03-09 20:01:00,58.8,54.3,30.10,North,0,0.0,0.0,85,0.00,,,0.00,WUHU21623XXSP,2013-03-10 02:01:00,
2013-03-09 20:06:00,58.6,54.5,30.10,North,0,0.0,0.0,86,0.00,,,0.00,WUHU21623XXSP,2013-03-10 02:06:00,
2013-03-09 20:11:00,58.6,54.5,30.10,North,0,0.0,0.0,86,0.00,,,0.00,WUHU21623XXSP,2013-03-10 02:11:00,
2013-03-09 20:16:00,58.5,54.3,30.10,North,0,0.0,0.0,86,0.00,,,0.00,WUHU21623XXSP,2013-03-10 02:16:00,
2013-03-09 20:21:00,58.3,54.1,30.10,North,0,0.0,0.0,86,0.00,,,0.00,WUHU21623XXSP,2013-03-10 02:21:00,
2013-03-09 20:26:00,58.3,54.1,30.10,North,0,0.0,0.0,86,0.00,,,0.00,WUHU21623XXSP,2013-03-10 02:26:00,
2013-03-09 20:31:00,58.3,54.4,30.10,North,0,0.0,0.0,87,0.00,,,0.00,WUHU21623XXSP,2013-03-10 02:31:00,
2013-03-09 20:36:00,58.1,54.2,30.10,North,0,0.0,0.0,87,0.00,,,0.00,WUHU21623XXSP,2013-03-10 02:36:00,
2013-03-09 20:41:00,58.1,54.2,30.10,North,0,0.0,0.0,88,0.00,,,0.00,WUHU21623XXSP,2013-03-10 02:41:00,
2013-03-09 20:46:00,57.9,54.4,30.10,North,0,0.0,0.0,88,0.00,,,0.00,WUHU21623XXSP,2013-03-10 02:46:00,
2013-03-09 20:51:00,57.9,54.4,30.10,North,0,0.0,0.0,88,0.00,,,0.00,WUHU21623XXSP,2013-03-10 02:51:00,
2013-03-09 20:56:00,57.9,54.4,30.10,North,0,0.0,0.0,88,0.00,,,0.00,WUHU21623XXSP,2013-03-10 02:56:00,
2013-03-09 21:01:00,57.9,54.4,30.10,North,0,0.0,0.0,88,0.00,,,0.00,WUHU21623XXSP,2013-03-10 03:01:00,
2013-03-09 21:06:00,57.7,54.5,30.10,North,0,0.0,0.0,89,0.00,,,0.00,WUHU21623XXSP,2013-03-10 03:06:00,
2013-03-09 21:11:00,57.7,54.5,30.10,North,0,0.0,0.0,89,0.00,,,0.00,WUHU21623XXSP,2013-03-10 03:11:00,
2013-03-09 21:16:00,57.7,54.5,30.10,North,0,0.0,0.0,89,0.00,,,0.00,WUHU21623XXSP,2013-03-10 03:16:00,
2013-03-09 21:21:00,57.7,54.5,30.10,North,0,0.0,0.0,89,0.00,,,0.00,WUHU21623XXSP,2013-03-10 03:21:00,
2013-03-09 21:26:00,57.7,54.5,30.10,North,0,0.0,0.0,89,0.00,,,0.00,WUHU21623XXSP,2013-03-10 03:26:00,
2013-03-09 21:31:00,57.6,54.7,30.09,North,0,0.0,0.0,90,0.00,,,0.00,WUHU21623XXSP,2013-03-10 03:31:00,
2013-03-09 21:36:00,57.6,54.7,30.09,North,0,0.0,0.0,90,0.00,,,0.00,WUHU21623XXSP,2013-03-10 03:36:00,
2013-03-09 21:41:00,57.6,54.7,30.09,North,0,0.0,0.0,90,0.00,,,0.00,WUHU21623XXSP,2013-03-10 03:41:00,
2013-03-09 21:46:00,57.6,54.7,30.09,North,0,0.0,0.0,90,0.00,,,0.00,WUHU21623XXSP,2013-03-10 03:46:00,
2013-03-09 21:51:00,57.6,54.7,30.09,North,0,0.0,0.0,90,0.00,,,0.00,WUHU21623XXSP,2013-03-10 03:51:00,
2013-03-09 21:56:00,57.6,54.7,30.09,North,0,0.0,0.0,90,0.00,,,0.00,WUHU21623XXSP,2013-03-10 03:56:00,
2013-03-09 22:01:00,57.6,55.0,30.08,North,0,0.0,0.0,91,0.00,,,0.00,WUHU21623XXSP,2013-03-10 04:01:00,
2013-03-09 22:06:00,57.6,55.0,30.08,North,0,0.0,0.0,91,0.00,,,0.00,WUHU21623XXSP,2013-03-10 04:06:00,
2013-03-09 22:11:00,57.6,55.0,30.08,North,0,0.0,0.0,91,0.00,,,0.00,WUHU21623XXSP,2013-03-10 04:11:00,
2013-03-09 22:16:00,57.6,55.0,30.07,North,0,0.0,0.0,91,0.00,,,0.00,WUHU21623XXSP,2013-03-10 04:16:00,
2013-03-09 22:21:00,57.6,55.0,30.07,North,0,0.0,0.0,91,0.00,,,0.00,WUHU21623XXSP,2013-03-10 04:21:00,
2013-03-09 22:26:00,57.6,55.0,30.07,North,0,0.0,0.0,91,0.00,,,0.00,WUHU21623XXSP,2013-03-10 04:26:00,
2013-03-09 22:31:00,57.6,55.0,30.06,North,0,0.0,0.0,91,0.00,,,0.00,WUHU21623XXSP,2013-03-10 04:31:00,
2013-03-09 22:36:00,57.6,55.0,30.05,North,0,0.0,0.0,91,0.00,,,0.00,WUHU21623XXSP,2013-03-10 04:36:00,
2013-03-09 22:41:00,57.6,55.0,30.04,North,0,0.0,0.0,92,0.00,,,0.00,WUHU21623XXSP,2013-03-10 04:41:00,
2013-03-09 22:46:00,57.7,55.4,30.05,North,0,0.0,0.0,92,0.00,,,0.00,WUHU21623XXSP,2013-03-10 04:46:00,
2013-03-09 22:51:00,57.7,55.4,30.07,North,0,0.0,0.0,92,0.00,,,0.00,WUHU21623XXSP,2013-03-10 04:51:00,
2013-03-09 22:56:00,57.7,55.4,30.07,North,0,0.0,0.0,92,0.00,,,0.00,WUHU21623XXSP,2013-03-10 04:56:00,
2013-03-09 23:00:00,57.9,55.6,30.07,North,0,0.0,0.0,92,0.00,,,0.00,WUHU21623XXSP,2013-03-10 05:00:00,
2013-03-09 23:01:00,57.9,55.6,30.07,North,0,0.0,0.0,92,0.00,,,0.00,WUHU21623XXSP,2013-03-10 05:01:00,
2013-03-09 23:06:00,57.9,55.6,30.06,North,0,0.0,0.0,92,0.00,,,0.00,WUHU21623XXSP,2013-03-10 05:06:00,
2013-03-09 23:11:00,57.9,55.6,30.06,North,0,0.0,0.0,92,0.00,,,0.00,WUHU21623XXSP,2013-03-10 05:11:00,
2013-03-09 23:16:00,58.1,55.6,30.05,North,0,0.0,0.0,92,0.00,,,0.00,WUHU21623XXSP,2013-03-10 05:16:00,
2013-03-09 23:21:00,58.3,56.0,30.04,North,0,0.0,0.0,92,0.00,,,0.00,WUHU21623XXSP,2013-03-10 05:21:00,
2013-03-09 23:26:00,58.3,56.0,30.05,North,0,0.0,0.0,92,0.00,,,0.00,WUHU21623XXSP,2013-03-10 05:26:00,
2013-03-09 23:31:00,58.3,56.0,30.05,North,0,0.0,0.0,92,0.00,,,0.00,WUHU21623XXSP,2013-03-10 05:31:00,
2013-03-09 23:36:00,58.6,56.3,30.05,North,0,0.0,0.0,92,0.00,,,0.00,WUHU21623XXSP,2013-03-10 05:36:00,
2013-03-09 23:41:00,58.6,56.3,30.05,North,0,0.0,0.0,92,0.00,,,0.00,WUHU21623XXSP,2013-03-10 05:41:00,
2013-03-09 23:46:00,58.8,56.2,30.05,North,0,0.0,0.0,91,0.00,,,0.00,WUHU21623XXSP,2013-03-10 05:46:00,
2013-03-09 23:51:00,58.8,56.2,30.05,North,0,0.0,0.0,91,0.00,,,0.00,WUHU21623XXSP,2013-03-10 05:51:00,
2013-03-09 23:56:00,58.8,56.2,30.05,North,0,0.0,0.0,91,0.00,,,0.00,WUHU21623XXSP,2013-03-10 05:56:00,